EUL weather

Caldwell Industrial Airport
Caldwell, Idaho, United States

Public forecast

Using degrees Fahrenheit for public forecast. Weather courtesy of forecast.io.

METAR (pilot weather report)

Retrieved 2019/05/22 04:56 UTC (11 minutes ago):

KEUL 220456Z AUTO 25009KT 10SM CLR 11/08 A2965 RMK AO2 SLP039 T01110078

TAF (pilot weather forecast)

Forecast is more than 12 hours old.

Retrieved 2019/05/21 00:21 UTC (1 day ago):

TAF KEUL 212320Z 2200/2224 23012KT P6SM FEW035 BKN070 FM221200 30008KT P6SM SCT040 BKN080 FM222000 31015G25KT P6SM -SHRA OVC050